Terminal Aerodrome Forecast
Issued by NWS Cleveland, OH

Home | Current Version | Previous Version | Text Only | Print | Product List | Glossary On
Versions: 1 2 3 4 5 6 7 8 9 10 11 12 13 14 15 16 17 18 19 20 21 22 23 24 25 26 27 28 29 30 31
000
FTUS41 KCLE 012100 AAA
TAFCLE
TAF AMD
KCLE 012145Z 0122/0224 01006KT P6SM SCT050
      TEMPO 0122/0124 2SM TSRA BR OVC040CB
     FM020100 04005KT P6SM VCSH BKN060
     FM020600 00000KT P6SM BKN050 OVC200
     FM021000 00000KT 5SM BR SCT050 OVC100
     FM021600 VRB04KT P6SM -SHRA VCTS BKN040CB=

USA.gov is the U.S. government's official web portal to all federal, state and local government web resources and services.